Time;durP1;ratioP1;P1;durP2;ratioP2;P2;SDS_P1;SDS_P2;PMS_P1;PMS_P2;Temp;Humidity;BMP_temperature;BMP_pressure;BME280_temperature;BME280_humidity;BME280_pressure;Samples;Min_cycle;Max_cycle;Signal;HPM_P1;HPM_P2
2024/01/12 00:02:17;;;;;;;15.43;3.10;;;;;;;-146.27;87.63;43007.66;5089486;28;20035;-85
2024/01/12 00:04:43;;;;;;;17.73;3.10;;;;;;;-146.27;87.46;43021.56;5089225;28;20032;-85
2024/01/12 00:07:09;;;;;;;19.77;3.95;;;;;;;-146.27;87.51;43049.41;5086415;28;20036;-86
2024/01/12 00:09:35;;;;;;;19.40;3.13;;;;;;;-146.27;87.43;43059.38;5088216;28;20103;-84
2024/01/12 00:12:00;;;;;;;17.02;2.92;;;;;;;-146.27;87.42;43043.44;5089890;28;20547;-85
2024/01/12 00:14:25;;;;;;;17.13;2.95;;;;;;;-146.27;87.52;43059.38;5086806;28;20028;-84
2024/01/12 00:16:51;;;;;;;24.88;3.83;;;;;;;-146.27;87.35;43057.38;5083568;28;20119;-85
2024/01/12 00:19:19;;;;;;;27.50;3.60;;;;;;;-146.27;87.27;43053.41;5089974;28;20032;-84
2024/01/12 00:21:44;;;;;;;26.55;3.75;;;;;;;-146.27;87.26;43049.41;5090674;28;20028;-84
2024/01/12 00:24:09;;;;;;;24.13;3.20;;;;;;;-146.27;87.29;43041.47;5090893;28;20400;-86
2024/01/12 00:26:35;;;;;;;29.25;3.38;;;;;;;-146.27;87.53;43059.38;5087672;28;20055;-85
2024/01/12 00:29:00;;;;;;;14.95;2.88;;;;;;;-146.27;87.34;43055.38;5088809;28;20028;-87
2024/01/12 00:31:26;;;;;;;22.88;4.00;;;;;;;-146.27;87.30;43041.47;5092271;28;20023;-87
2024/01/12 00:33:51;;;;;;;27.10;3.33;;;;;;;-146.27;87.13;43063.34;5085249;28;20590;-85
2024/01/12 00:36:18;;;;;;;22.30;3.25;;;;;;;-146.27;87.28;43053.41;5096279;28;20023;-87
2024/01/12 00:38:43;;;;;;;31.30;3.88;;;;;;;-146.27;87.38;43035.50;5085092;28;20065;-84
2024/01/12 00:41:08;;;;;;;18.58;3.22;;;;;;;-146.27;87.54;43051.41;5088052;28;20047;-86
2024/01/12 00:43:34;;;;;;;21.02;3.28;;;;;;;-146.27;87.12;43051.41;5090576;28;20076;-85
2024/01/12 00:46:00;;;;;;;21.33;3.28;;;;;;;-146.27;87.33;43015.59;5089906;28;20036;-86
2024/01/12 00:48:26;;;;;;;30.60;3.40;;;;;;;-146.27;87.30;43051.41;5092088;28;20028;-89
2024/01/12 00:50:51;;;;;;;22.17;4.22;;;;;;;-146.27;87.26;43073.28;5089018;28;20028;-88
2024/01/12 00:53:16;;;;;;;22.35;3.33;;;;;;;-146.27;87.27;43049.41;5086208;28;20115;-87
2024/01/12 00:55:42;;;;;;;19.23;3.67;;;;;;;-146.27;87.11;43049.41;5085175;28;20024;-88
2024/01/12 00:58:07;;;;;;;15.18;3.28;;;;;;;-146.27;87.14;43057.38;5087394;28;20084;-80
2024/01/12 01:00:33;;;;;;;18.02;3.33;;;;;;;-146.27;87.26;43045.44;5089095;28;20055;-87
2024/01/12 01:03:06;;;;;;;18.98;3.17;;;;;;;-146.27;86.95;43059.38;5088434;28;20149;-87
2024/01/12 01:05:31;;;;;;;19.02;3.55;;;;;;;-146.27;87.36;43065.34;5089964;28;20035;-87
2024/01/12 01:07:56;;;;;;;27.42;3.33;;;;;;;-146.27;87.02;43049.41;5088665;28;20399;-89
2024/01/12 01:10:22;;;;;;;20.33;3.35;;;;;;;-146.27;86.95;43053.41;5088569;28;20387;-88
2024/01/12 01:12:48;;;;;;;24.98;3.75;;;;;;;-146.27;87.13;43077.28;5088980;28;20024;-87
2024/01/12 01:15:14;;;;;;;24.92;3.67;;;;;;;-146.27;86.87;43093.19;5088931;28;20544;-88
2024/01/12 01:17:39;;;;;;;21.92;3.40;;;;;;;-146.27;86.97;43065.34;5088602;28;20028;-88
2024/01/12 01:20:07;;;;;;;14.05;2.60;;;;;;;-146.27;87.05;43071.31;5090024;28;20022;-86
2024/01/12 01:22:34;;;;;;;17.48;2.95;;;;;;;-146.27;87.02;43087.22;5087824;28;20040;-87
2024/01/12 01:25:00;;;;;;;13.02;2.72;;;;;;;-146.27;87.13;43077.28;5088486;28;20036;-89
2024/01/12 01:27:27;;;;;;;22.58;2.80;;;;;;;-146.27;87.14;43073.28;5088837;28;20035;-87
2024/01/12 01:29:52;;;;;;;22.75;3.53;;;;;;;-146.27;87.36;43077.28;5091746;28;20084;-92
2024/01/12 01:32:17;;;;;;;25.52;2.85;;;;;;;-146.27;87.24;43059.38;5094769;28;20069;-85
2024/01/12 01:34:43;;;;;;;17.70;3.70;;;;;;;-146.27;86.74;43071.31;5094206;28;20073;-88
2024/01/12 01:37:08;;;;;;;12.25;3.35;;;;;;;-146.27;87.00;43095.16;5090418;28;20111;-85
2024/01/12 01:39:34;;;;;;;15.00;2.38;;;;;;;-146.27;87.03;43085.22;5088119;28;20036;-84
2024/01/12 01:42:01;;;;;;;19.30;3.28;;;;;;;-146.27;87.00;43097.16;5090093;28;20050;-91
2024/01/12 01:44:26;;;;;;;24.27;2.97;;;;;;;-146.27;86.92;43087.22;5090896;28;20495;-90
2024/01/12 01:46:53;;;;;;;23.00;3.25;;;;;;;-146.27;86.80;43089.19;5090818;28;20032;-89
2024/01/12 01:49:20;;;;;;;16.25;3.85;;;;;;;-146.27;86.61;43117.06;5093696;28;20052;-84
2024/01/12 01:51:45;;;;;;;19.50;3.88;;;;;;;-146.27;86.60;43099.16;5088556;28;20043;-89
2024/01/12 01:54:11;;;;;;;18.65;3.17;;;;;;;-146.27;86.90;43109.09;5089324;28;20043;-88
2024/01/12 01:56:39;;;;;;;16.65;2.80;;;;;;;-146.27;86.79;43093.19;5088507;28;20028;-89
2024/01/12 01:59:06;;;;;;;17.90;2.97;;;;;;;-146.27;87.19;43073.28;5090144;28;20092;-89
2024/01/12 02:01:33;;;;;;;12.88;2.55;;;;;;;-146.27;87.08;43101.13;5084867;28;20039;-90
2024/01/12 02:03:59;;;;;;;16.98;2.47;;;;;;;-146.27;87.13;43089.19;5089637;28;20472;-90
2024/01/12 02:06:25;;;;;;;16.60;2.60;;;;;;;-146.27;87.07;43095.16;5088226;28;20383;-88
2024/01/12 02:08:52;;;;;;;13.48;2.42;;;;;;;-146.27;86.92;43121.03;5088132;28;20020;-87
2024/01/12 02:11:17;;;;;;;19.85;2.75;;;;;;;-146.27;87.00;43101.13;5088681;28;20039;-86
2024/01/12 02:13:43;;;;;;;15.57;2.88;;;;;;;-146.27;86.92;43089.19;5086256;28;20028;-86
2024/01/12 02:16:08;;;;;;;16.50;2.83;;;;;;;-146.27;87.08;43089.19;5088586;28;20032;-88
2024/01/12 02:18:34;;;;;;;23.38;3.00;;;;;;;-146.27;87.12;43093.19;5087908;28;20051;-84
2024/01/12 02:20:59;;;;;;;14.63;3.33;;;;;;;-146.27;86.93;43081.25;5084279;28;20028;-84
2024/01/12 02:23:25;;;;;;;17.27;3.28;;;;;;;-146.27;86.92;43105.13;5089734;28;20028;-88
2024/01/12 02:25:51;;;;;;;22.30;3.15;;;;;;;-146.27;86.95;43101.13;5088826;28;20032;-89
2024/01/12 02:28:16;;;;;;;16.58;3.00;;;;;;;-146.27;87.02;43125.00;5088374;28;20028;-85
2024/01/12 02:30:42;;;;;;;23.67;3.33;;;;;;;-146.27;87.07;43089.19;5088025;28;20028;-88
2024/01/12 02:33:08;;;;;;;18.95;3.22;;;;;;;-146.27;86.72;43105.13;5087640;28;20130;-85
2024/01/12 02:35:34;;;;;;;17.02;3.17;;;;;;;-146.27;87.10;43077.28;5088353;28;20582;-86
2024/01/12 02:38:00;;;;;;;13.35;3.25;;;;;;;-146.27;86.97;43113.06;5069959;28;20107;-86
2024/01/12 02:40:25;;;;;;;14.07;3.10;;;;;;;-146.27;87.13;43081.25;5088310;28;20020;-85
2024/01/12 02:42:51;;;;;;;16.35;2.90;;;;;;;-146.27;87.07;43111.09;5089645;28;20027;-84
2024/01/12 02:45:16;;;;;;;17.70;4.10;;;;;;;-146.27;87.21;43095.16;5087100;28;20073;-86
2024/01/12 02:47:43;;;;;;;12.70;3.00;;;;;;;-146.27;87.32;43065.34;5089614;28;20020;-84
2024/01/12 02:50:08;;;;;;;10.57;3.03;;;;;;;-146.27;87.38;43085.22;5085402;28;20046;-84
2024/01/12 02:52:37;;;;;;;12.02;2.88;;;;;;;-146.27;87.34;43085.22;5088240;28;20024;-86
2024/01/12 02:55:03;;;;;;;22.90;3.53;;;;;;;-146.27;87.19;43101.13;5082210;28;20072;-85
2024/01/12 02:57:29;;;;;;;10.45;3.22;;;;;;;-146.27;87.26;43061.34;5089968;28;20035;-84
2024/01/12 02:59:56;;;;;;;18.05;3.08;;;;;;;-146.27;87.16;43073.28;5086483;28;20036;-86
2024/01/12 03:02:21;;;;;;;21.42;3.50;;;;;;;-146.27;87.16;43109.09;5084925;28;20064;-85
2024/01/12 03:04:47;;;;;;;17.27;2.97;;;;;;;-146.27;87.02;43053.41;5080719;28;20100;-85
2024/01/12 03:07:13;;;;;;;12.50;2.58;;;;;;;-146.27;87.08;43103.13;5086409;28;20032;-86
2024/01/12 03:09:39;;;;;;;20.23;3.33;;;;;;;-146.27;87.37;43073.28;5089003;28;20038;-86
2024/01/12 03:12:04;;;;;;;9.55;3.40;;;;;;;-146.27;87.56;43077.28;5101629;28;20016;-85
2024/01/12 03:14:30;;;;;;;13.30;3.55;;;;;;;-146.27;87.46;43081.25;5089844;28;20479;-84
2024/01/12 03:16:55;;;;;;;19.35;3.10;;;;;;;-146.27;87.17;43081.25;5091337;28;20027;-86
2024/01/12 03:19:21;;;;;;;17.50;3.38;;;;;;;-146.27;87.16;43097.16;5091748;28;20024;-85
2024/01/12 03:21:46;;;;;;;11.45;3.22;;;;;;;-146.27;87.43;43105.13;5090998;28;20024;-85
2024/01/12 03:24:11;;;;;;;11.85;4.00;;;;;;;-146.27;87.18;43101.13;5092301;28;20064;-85
2024/01/12 03:26:37;;;;;;;16.08;3.92;;;;;;;-146.27;87.18;43065.34;5089897;28;20047;-86
2024/01/12 03:29:03;;;;;;;23.65;3.22;;;;;;;-146.27;87.40;43119.03;5088734;28;20100;-85
2024/01/12 03:31:28;;;;;;;12.82;2.97;;;;;;;-146.27;87.38;43081.25;5089426;28;21665;-86
2024/01/12 03:33:54;;;;;;;20.13;3.65;;;;;;;-146.27;87.29;43063.34;5091076;28;20111;-84
2024/01/12 03:36:22;;;;;;;16.17;3.15;;;;;;;-146.27;87.24;43069.31;5089717;28;20496;-85
2024/01/12 03:38:48;;;;;;;10.98;2.83;;;;;;;-146.27;87.24;43113.06;5090092;28;20127;-84
2024/01/12 03:41:13;;;;;;;13.27;3.08;;;;;;;-146.27;87.32;43081.25;5091065;28;20557;-84
2024/01/12 03:43:39;;;;;;;11.93;3.45;;;;;;;-146.27;87.09;43085.22;5091285;28;20027;-84
2024/01/12 03:46:04;;;;;;;20.48;3.72;;;;;;;-146.27;87.44;43049.41;5085451;28;20020;-86
2024/01/12 03:48:29;;;;;;;17.05;3.90;;;;;;;-146.27;87.35;43111.09;5091670;28;20404;-90
2024/01/12 03:50:55;;;;;;;11.95;3.45;;;;;;;-146.27;87.26;43085.22;5091318;28;20024;-86
2024/01/12 03:53:20;;;;;;;16.92;3.17;;;;;;;-146.27;87.32;43077.28;5088961;28;20147;-84
2024/01/12 03:55:45;;;;;;;13.57;3.58;;;;;;;-146.27;87.71;43093.19;5090956;28;20013;-84
2024/01/12 03:58:11;;;;;;;24.75;3.95;;;;;;;-146.27;87.43;43089.19;5097164;28;20023;-85
2024/01/12 04:00:36;;;;;;;17.00;3.70;;;;;;;-146.27;87.37;43089.19;5088318;28;20361;-85
2024/01/12 04:03:02;;;;;;;14.38;3.63;;;;;;;-146.27;87.43;43075.28;5091149;28;20063;-84
2024/01/12 04:05:27;;;;;;;16.00;3.20;;;;;;;-146.27;87.71;43073.28;5089791;28;20472;-83
2024/01/12 04:07:53;;;;;;;9.32;3.13;;;;;;;-146.27;87.59;43089.19;5093569;28;20028;-85
2024/01/12 04:10:19;;;;;;;16.15;3.30;;;;;;;-146.27;87.71;43049.41;5089836;28;20032;-84
2024/01/12 04:12:45;;;;;;;15.98;4.20;;;;;;;-146.27;87.54;43079.25;5090695;28;20034;-83
2024/01/12 04:15:10;;;;;;;20.13;5.50;;;;;;;-146.27;87.66;43085.22;5090739;28;20419;-84
2024/01/12 04:17:36;;;;;;;18.85;3.88;;;;;;;-146.27;87.46;43087.22;5088653;28;20468;-83
2024/01/12 04:20:02;;;;;;;15.07;3.47;;;;;;;-146.27;87.70;43059.38;5089859;28;20099;-83
2024/01/12 04:22:28;;;;;;;21.23;4.65;;;;;;;-146.27;87.70;43067.31;5088569;28;20049;-83
2024/01/12 04:24:53;;;;;;;15.23;3.80;;;;;;;-146.27;87.85;43065.34;5096969;28;20036;-83
2024/01/12 04:27:18;;;;;;;17.20;4.32;;;;;;;-146.27;87.90;43043.44;5089789;28;20077;-83
2024/01/12 04:29:44;;;;;;;18.27;4.03;;;;;;;-146.27;87.68;43073.28;5087754;28;20082;-83
2024/01/12 04:32:09;;;;;;;7.88;3.70;;;;;;;-146.27;87.72;43049.41;5088199;28;20024;-83
2024/01/12 04:34:36;;;;;;;7.47;3.45;;;;;;;-146.27;87.70;43047.44;5088914;28;20112;-82
2024/01/12 04:37:01;;;;;;;12.52;4.10;;;;;;;-146.27;87.89;43053.41;5094338;28;20644;-82
2024/01/12 04:39:27;;;;;;;17.90;4.15;;;;;;;-146.27;87.52;43049.41;5087356;28;20019;-82
2024/01/12 04:41:52;;;;;;;16.63;3.88;;;;;;;-146.27;87.62;43073.28;5087433;28;20046;-83
2024/01/12 04:44:18;;;;;;;13.18;3.38;;;;;;;-146.27;87.64;43085.22;5086519;28;20032;-83
2024/01/12 04:46:43;;;;;;;11.90;3.40;;;;;;;-146.27;87.34;43045.44;5083973;28;20024;-83
2024/01/12 04:49:09;;;;;;;13.45;4.63;;;;;;;-146.27;87.62;43065.34;5090785;28;20031;-83
2024/01/12 04:51:35;;;;;;;13.80;4.28;;;;;;;-146.27;87.48;43077.28;5079669;28;20043;-82
2024/01/12 04:54:00;;;;;;;11.95;4.00;;;;;;;-146.27;87.62;43025.56;5089606;28;20032;-82
2024/01/12 04:56:26;;;;;;;11.75;4.30;;;;;;;-146.27;87.32;43073.28;5085889;28;20055;-83
2024/01/12 04:58:51;;;;;;;15.40;4.65;;;;;;;-146.27;87.38;43029.53;5086282;28;20030;-83
2024/01/12 05:01:16;;;;;;;17.65;4.40;;;;;;;-146.27;87.33;43063.34;5087095;28;20028;-83
2024/01/12 05:03:45;;;;;;;22.75;4.25;;;;;;;-146.27;87.62;43077.28;5089476;28;20042;-82
2024/01/12 05:06:10;;;;;;;12.57;3.85;;;;;;;-146.27;87.72;43073.28;5088567;28;20031;-86
2024/01/12 05:08:37;;;;;;;11.18;4.25;;;;;;;-146.27;87.46;43053.41;5090723;28;20457;-83
2024/01/12 05:11:02;;;;;;;10.70;3.55;;;;;;;-146.27;87.67;43033.50;5090238;28;20020;-79
2024/01/12 05:13:29;;;;;;;12.70;4.35;;;;;;;-146.27;87.81;43021.56;5087958;28;20039;-79
2024/01/12 05:15:54;;;;;;;12.40;4.07;;;;;;;-146.27;87.74;43051.41;5090696;28;20131;-84
2024/01/12 05:18:19;;;;;;;18.00;3.90;;;;;;;-146.27;87.75;43057.38;5090274;28;20066;-84
2024/01/12 05:20:45;;;;;;;11.30;4.47;;;;;;;-146.27;87.84;43057.38;5090521;28;20028;-84
2024/01/12 05:23:11;;;;;;;15.77;4.10;;;;;;;-146.27;87.84;43089.19;5089027;28;20028;-84
2024/01/12 05:25:37;;;;;;;13.18;4.45;;;;;;;-146.27;87.81;43037.50;5088639;28;20133;-83
2024/01/12 05:28:03;;;;;;;13.77;4.35;;;;;;;-146.27;87.84;43049.41;5089171;28;20545;-80
2024/01/12 05:30:28;;;;;;;16.80;4.63;;;;;;;-146.27;87.86;43045.44;5084089;28;20030;-85
2024/01/12 05:32:53;;;;;;;13.45;3.75;;;;;;;-146.27;87.59;43041.47;5086054;28;20028;-83
2024/01/12 05:35:19;;;;;;;14.73;4.32;;;;;;;-146.27;87.88;43035.50;5087068;28;20012;-84
2024/01/12 05:37:44;;;;;;;23.88;4.95;;;;;;;-146.27;87.85;43031.53;5088031;28;20525;-85
2024/01/12 05:40:10;;;;;;;20.05;4.32;;;;;;;-146.27;87.75;43025.56;5087535;28;20024;-84
2024/01/12 05:42:35;;;;;;;17.10;4.10;;;;;;;-146.27;87.81;43063.34;5087408;28;20081;-83
2024/01/12 05:45:01;;;;;;;11.48;5.13;;;;;;;-146.27;87.81;43055.38;5082419;28;20024;-83
2024/01/12 05:47:26;;;;;;;9.15;4.35;;;;;;;-146.27;87.99;43039.47;5089486;28;20035;-83
2024/01/12 05:49:51;;;;;;;21.85;4.60;;;;;;;-146.27;87.97;43047.44;5087949;28;20063;-82
2024/01/12 05:52:17;;;;;;;19.42;4.75;;;;;;;-146.27;88.04;43019.59;5087914;28;20035;-83
2024/01/12 05:54:42;;;;;;;17.40;4.97;;;;;;;-146.27;87.97;43037.50;5085266;28;20156;-83
2024/01/12 05:57:08;;;;;;;18.45;5.05;;;;;;;-146.27;87.89;43035.50;5089139;28;20097;-83
2024/01/12 05:59:33;;;;;;;11.23;5.28;;;;;;;-146.27;87.92;43021.56;5087154;28;20058;-84
2024/01/12 06:01:59;;;;;;;12.57;5.43;;;;;;;-146.27;87.88;43021.56;5087901;28;20099;-83
2024/01/12 06:04:24;;;;;;;16.27;4.75;;;;;;;-146.27;88.00;43031.53;5087285;28;20104;-83
2024/01/12 06:06:50;;;;;;;14.55;4.80;;;;;;;-146.27;87.92;43015.59;5087124;28;20028;-83
2024/01/12 06:09:17;;;;;;;16.73;5.85;;;;;;;-146.27;87.82;43033.50;5085801;28;20085;-83
2024/01/12 06:11:43;;;;;;;8.95;4.97;;;;;;;-146.27;87.97;43023.56;5082827;28;20502;-83
2024/01/12 06:14:09;;;;;;;23.58;5.28;;;;;;;-146.27;87.78;43027.53;5084570;28;20040;-82
2024/01/12 06:16:35;;;;;;;11.57;4.80;;;;;;;-146.27;88.03;43033.50;5089515;28;20524;-83
2024/01/12 06:19:01;;;;;;;11.57;4.60;;;;;;;-146.27;88.08;43021.56;5086752;28;20036;-83
2024/01/12 06:21:28;;;;;;;14.85;5.82;;;;;;;-146.27;87.97;43025.56;5088880;28;20552;-83
2024/01/12 06:23:54;;;;;;;18.77;6.40;;;;;;;-146.27;87.92;43045.44;5088243;28;20070;-82
2024/01/12 06:26:19;;;;;;;18.45;6.05;;;;;;;-146.27;88.10;42999.69;5087230;28;20052;-83
2024/01/12 06:28:46;;;;;;;15.45;5.63;;;;;;;-146.27;88.10;43033.50;5086774;28;20024;-84
2024/01/12 06:31:11;;;;;;;23.13;5.88;;;;;;;-146.27;87.99;43005.66;5084978;28;20039;-83
2024/01/12 06:33:37;;;;;;;15.05;6.10;;;;;;;-146.27;88.26;43015.59;5088001;28;20463;-82
2024/01/12 06:36:02;;;;;;;15.90;5.75;;;;;;;-146.27;88.03;43015.59;5086785;28;20078;-82
2024/01/12 06:38:28;;;;;;;19.23;5.28;;;;;;;-146.27;88.13;43009.63;5085891;28;20404;-84
2024/01/12 06:40:53;;;;;;;14.98;6.35;;;;;;;-146.27;87.82;43021.56;5090073;28;20027;-83
2024/01/12 06:43:19;;;;;;;15.95;5.95;;;;;;;-146.27;87.97;43029.53;5086124;28;20404;-83
2024/01/12 06:45:44;;;;;;;17.02;5.78;;;;;;;-146.27;88.35;43019.59;5089271;28;20047;-82
2024/01/12 06:48:10;;;;;;;18.58;6.13;;;;;;;-146.27;88.46;42989.75;5091143;28;20448;-82
2024/01/12 06:50:35;;;;;;;20.00;5.60;;;;;;;-146.27;88.37;43005.66;5087404;28;20065;-78
2024/01/12 06:53:04;;;;;;;17.08;6.53;;;;;;;-146.27;88.08;43005.66;5090724;28;20048;-82
2024/01/12 06:55:30;;;;;;;10.40;6.07;;;;;;;-146.27;88.31;43005.66;5093814;28;20089;-86
2024/01/12 06:57:55;;;;;;;21.65;6.10;;;;;;;-146.27;88.13;43001.69;5094883;28;20138;-86
2024/01/12 07:00:20;;;;;;;10.80;5.25;;;;;;;-146.27;88.17;43015.59;5092983;28;20020;-83
2024/01/12 07:02:46;;;;;;;24.83;6.15;;;;;;;-146.27;88.46;42999.69;5098653;28;20072;-86
2024/01/12 07:05:13;;;;;;;15.80;5.95;;;;;;;-146.27;88.16;43001.69;5090165;28;20043;-88
2024/01/12 07:07:42;;;;;;;11.23;5.05;;;;;;;-146.27;88.16;42997.72;5093587;28;20028;-87
2024/01/12 07:10:10;;;;;;;14.30;5.50;;;;;;;-146.27;88.24;42985.78;5073978;28;20136;-89
2024/01/12 07:12:35;;;;;;;11.07;5.57;;;;;;;-146.27;88.28;42993.72;5088605;28;20630;-85
2024/01/12 07:15:00;;;;;;;12.77;6.28;;;;;;;-146.27;88.35;42963.91;5085810;28;20024;-83
2024/01/12 07:17:26;;;;;;;12.93;5.65;;;;;;;-146.27;88.45;42985.78;5083895;28;20024;-85
2024/01/12 07:19:51;;;;;;;21.30;5.40;;;;;;;-146.27;88.46;42983.78;5082838;28;20034;-85
2024/01/12 07:22:16;;;;;;;12.50;6.15;;;;;;;-146.27;88.54;42977.81;5083284;28;20024;-87
2024/01/12 07:24:42;;;;;;;8.18;5.32;;;;;;;-146.27;88.36;42983.78;5083576;28;20043;-84
2024/01/12 07:27:07;;;;;;;17.02;6.13;;;;;;;-146.27;88.43;42985.78;5074980;28;20056;-84
2024/01/12 07:29:33;;;;;;;19.50;6.85;;;;;;;-146.27;88.16;42965.88;5083943;28;20032;-86
2024/01/12 07:31:58;;;;;;;11.77;5.25;;;;;;;-146.27;88.28;42965.88;5100620;28;20024;-89
2024/01/12 07:34:28;;;;;;;15.32;7.18;;;;;;;-146.27;88.46;42965.88;5089899;28;20430;-86
2024/01/12 07:36:53;;;;;;;13.98;6.32;;;;;;;-146.27;88.35;42985.78;5089012;28;20023;-85
2024/01/12 07:39:19;;;;;;;15.70;5.80;;;;;;;-146.27;88.45;42965.88;5092527;28;20031;-83
2024/01/12 07:41:44;;;;;;;14.35;6.07;;;;;;;-146.27;88.69;42959.91;5092423;28;20028;-83
2024/01/12 07:44:12;;;;;;;16.90;5.88;;;;;;;-146.27;88.32;42963.91;5089505;28;20108;-89
2024/01/12 07:46:38;;;;;;;12.93;5.90;;;;;;;-146.27;88.54;42967.88;5091924;28;20028;-88
2024/01/12 07:49:03;;;;;;;15.50;6.10;;;;;;;-146.27;88.54;42965.88;5099117;28;20114;-88
2024/01/12 07:51:28;;;;;;;15.80;6.30;;;;;;;-146.27;88.40;42993.72;5104689;28;20500;-89
2024/01/12 07:53:54;;;;;;;20.58;5.95;;;;;;;-146.27;88.74;42965.88;5090998;28;20048;-88
2024/01/12 07:56:19;;;;;;;14.23;6.05;;;;;;;-146.27;88.73;42957.94;5090481;28;20024;-83
2024/01/12 07:58:45;;;;;;;12.32;5.57;;;;;;;-146.27;88.67;42973.84;5092254;28;20020;-86
2024/01/12 08:01:15;;;;;;;20.17;6.53;;;;;;;-146.27;88.81;42961.91;5090061;28;20085;-89
2024/01/12 08:03:42;;;;;;;14.13;6.35;;;;;;;-146.27;88.49;42975.81;5071704;28;20033;-88
2024/01/12 08:06:08;;;;;;;19.23;5.57;;;;;;;-146.27;88.49;42953.94;5071398;28;20897;-86
2024/01/12 08:08:33;;;;;;;20.85;6.15;;;;;;;-146.27;88.54;42965.88;5086594;28;20031;-87
2024/01/12 08:10:58;;;;;;;16.35;6.25;;;;;;;-146.27;88.55;42965.88;5092050;28;20054;-86
2024/01/12 08:13:24;;;;;;;18.50;6.63;;;;;;;-146.27;88.52;42965.88;5092770;28;20468;-87
2024/01/12 08:15:50;;;;;;;19.98;6.30;;;;;;;-146.27;88.78;42942.00;5092878;28;20073;-86
2024/01/12 08:18:16;;;;;;;15.10;5.50;;;;;;;-146.27;88.80;42973.84;5092695;28;20035;-86
2024/01/12 08:20:42;;;;;;;18.45;6.40;;;;;;;-146.27;88.67;42991.75;5104523;28;20472;-88
2024/01/12 08:23:07;;;;;;;14.73;5.88;;;;;;;-146.27;88.38;42963.91;5092859;28;20077;-86
2024/01/12 08:25:33;;;;;;;20.70;5.82;;;;;;;-146.27;88.46;42991.75;5094321;28;20028;-81
2024/01/12 08:27:58;;;;;;;21.13;5.35;;;;;;;-146.27;88.17;42977.81;5081366;28;20491;-85
2024/01/12 08:30:23;;;;;;;16.48;4.50;;;;;;;-146.27;88.21;42975.81;5086447;28;20035;-87
2024/01/12 08:32:49;;;;;;;9.82;4.32;;;;;;;-146.27;88.44;43001.69;5090458;28;20028;-87
2024/01/12 08:35:15;;;;;;;16.27;4.25;;;;;;;-146.27;88.02;43015.59;5091432;28;20039;-84
2024/01/12 08:37:40;;;;;;;13.48;4.97;;;;;;;-146.27;88.10;43017.59;5089704;28;20024;-86
2024/01/12 08:40:06;;;;;;;11.77;4.47;;;;;;;-146.27;88.01;43011.63;5084390;28;20035;-86
2024/01/12 08:42:32;;;;;;;22.17;5.10;;;;;;;-146.27;87.80;43055.38;5085195;28;20115;-84
2024/01/12 08:44:57;;;;;;;21.38;5.57;;;;;;;-146.27;88.16;43037.50;5083566;28;20028;-84
2024/01/12 08:47:23;;;;;;;17.27;4.60;;;;;;;-146.27;88.08;43033.50;5089622;28;20024;-84
2024/01/12 08:49:48;;;;;;;16.58;5.22;;;;;;;-146.27;88.02;43051.41;5092407;28;20038;-87
2024/01/12 08:52:15;;;;;;;14.82;4.47;;;;;;;-146.27;87.92;43065.34;5084856;28;20036;-84
2024/01/12 08:54:40;;;;;;;23.10;5.82;;;;;;;-146.27;87.79;43065.34;5086539;28;20119;-87
2024/01/12 08:57:06;;;;;;;19.25;5.43;;;;;;;-146.27;87.88;43069.31;5083110;28;20112;-84
2024/01/12 08:59:31;;;;;;;19.15;4.80;;;;;;;-146.27;87.91;43063.34;5080739;28;20015;-83
2024/01/12 09:01:57;;;;;;;22.30;4.60;;;;;;;-146.27;87.62;43089.19;5089808;28;20543;-83
2024/01/12 09:04:23;;;;;;;20.30;4.22;;;;;;;-146.27;87.38;43091.19;5089721;28;20031;-83
2024/01/12 09:06:48;;;;;;;21.95;4.45;;;;;;;-146.27;87.46;43081.25;5087395;28;20111;-82
2024/01/12 09:09:14;;;;;;;8.73;3.47;;;;;;;-146.27;87.72;43125.00;5095813;28;20032;-82
2024/01/12 09:11:39;;;;;;;18.05;3.88;;;;;;;-146.27;87.67;43148.88;5082537;28;20028;-83
2024/01/12 09:14:05;;;;;;;24.60;3.75;;;;;;;-146.27;87.54;43154.84;5080666;28;20050;-82
2024/01/12 09:16:30;;;;;;;18.92;3.05;;;;;;;-146.27;87.43;43170.75;5085986;28;20374;-83
2024/01/12 09:18:56;;;;;;;10.80;2.95;;;;;;;-146.27;87.38;43194.63;5099057;28;20024;-84
2024/01/12 09:21:23;;;;;;;16.58;3.17;;;;;;;-146.27;87.07;43208.56;5090213;28;20024;-85
2024/01/12 09:23:49;;;;;;;17.45;3.65;;;;;;;-146.27;87.02;43216.50;5082625;28;20035;-87
2024/01/12 09:26:16;;;;;;;6.85;3.13;;;;;;;-146.27;87.16;43224.47;5082115;28;20115;-89
2024/01/12 09:28:41;;;;;;;17.83;3.33;;;;;;;-146.27;86.75;43244.34;5090384;28;20035;-84
2024/01/12 09:31:08;;;;;;;14.70;2.75;;;;;;;-146.27;86.92;43246.34;5088817;28;20028;-84
2024/01/12 09:33:33;;;;;;;10.73;3.05;;;;;;;-146.27;86.84;43236.41;5092502;28;20030;-87
2024/01/12 09:35:59;;;;;;;8.73;2.83;;;;;;;-146.27;86.67;43252.31;5082741;28;20024;-88
2024/01/12 09:38:24;;;;;;;13.23;2.97;;;;;;;-146.27;86.50;43284.13;5091821;28;20024;-88
2024/01/12 09:40:51;;;;;;;11.90;2.97;;;;;;;-146.27;86.43;43280.16;5091621;28;20028;-86
2024/01/12 09:43:20;;;;;;;16.05;3.67;;;;;;;-146.27;86.46;43311.97;5082525;28;20038;-87
2024/01/12 09:45:46;;;;;;;11.23;2.78;;;;;;;-146.27;86.23;43302.03;5090191;28;20024;-86
2024/01/12 09:48:11;;;;;;;22.95;3.08;;;;;;;-146.27;86.29;43325.91;5077784;28;20055;-86
2024/01/12 09:50:39;;;;;;;10.70;2.70;;;;;;;-146.27;86.17;43304.03;5077524;28;20058;-89
2024/01/12 09:53:04;;;;;;;22.27;3.13;;;;;;;-146.27;86.03;43304.03;5085258;28;20048;-88
2024/01/12 09:55:30;;;;;;;11.23;2.70;;;;;;;-146.27;85.83;43321.94;5093802;28;20047;-88
2024/01/12 09:57:56;;;;;;;12.10;2.63;;;;;;;-146.27;85.72;43343.81;5084314;28;20017;-86
2024/01/12 10:00:26;;;;;;;18.77;3.22;;;;;;;-146.27;85.72;43355.75;5084368;28;20783;-87
2024/01/12 10:02:52;;;;;;;22.05;3.35;;;;;;;-146.27;85.70;43347.78;5089198;28;20547;-82
2024/01/12 10:05:18;;;;;;;12.90;3.60;;;;;;;-146.27;85.45;43381.59;5088680;28;20020;-81
2024/01/12 10:07:43;;;;;;;12.40;2.47;;;;;;;-146.27;85.40;43373.66;5089588;28;20402;-86
2024/01/12 10:10:09;;;;;;;18.05;3.15;;;;;;;-146.27;85.18;43369.66;5089281;28;20455;-87
2024/01/12 10:12:34;;;;;;;15.68;4.05;;;;;;;-146.27;84.96;43379.63;5090323;28;20036;-82
2024/01/12 10:15:04;;;;;;;12.13;2.83;;;;;;;-146.27;84.82;43403.50;5089679;28;20035;-87
2024/01/12 10:17:31;;;;;;;18.27;2.83;;;;;;;-146.27;84.61;43427.34;5088603;28;20028;-84
2024/01/12 10:19:56;;;;;;;11.75;2.67;;;;;;;-146.27;84.69;43443.28;5089732;28;20411;-87
2024/01/12 10:22:22;;;;;;;14.68;2.70;;;;;;;-146.27;84.54;43431.34;5097197;28;20031;-82
2024/01/12 10:24:58;;;;;;;9.48;2.35;;;;;;;-146.27;84.39;43435.31;5098291;28;20024;-83
2024/01/12 10:27:24;;;;;;;11.13;2.13;;;;;;;-146.27;84.31;43447.25;5092347;28;20458;-78
2024/01/12 10:29:49;;;;;;;14.15;2.33;;;;;;;-146.27;84.31;43471.13;5085506;28;20020;-78
2024/01/12 10:32:23;;;;;;;12.93;2.17;;;;;;;-146.27;84.18;43455.22;5093204;28;20039;-79
2024/01/12 10:34:50;;;;;;;16.65;2.75;;;;;;;-146.27;83.99;43477.09;5094834;28;20031;-78
2024/01/12 10:37:17;;;;;;;7.53;1.75;;;;;;;-146.27;83.75;43510.91;5090671;28;20071;-77
2024/01/12 10:39:47;;;;;;;10.50;3.03;;;;;;;-146.27;83.67;43508.91;5094367;28;20024;-78
2024/01/12 10:42:13;;;;;;;19.80;3.15;;;;;;;-146.27;83.48;43506.94;5093809;28;20035;-79
2024/01/12 10:44:40;;;;;;;6.07;1.50;;;;;;;-146.27;83.53;43500.97;5094227;28;20028;-78
2024/01/12 10:47:14;;;;;;;9.23;2.35;;;;;;;-146.27;83.34;43516.88;5090329;28;20678;-80
2024/01/12 10:49:51;;;;;;;12.98;2.30;;;;;;;-146.27;83.23;43538.75;5089111;28;20468;-79
2024/01/12 10:53:07;;;;;;;16.13;2.60;;;;;;;-146.27;82.94;43558.66;5093376;28;20039;-78
2024/01/12 10:55:36;;;;;;;12.40;2.05;;;;;;;-146.27;82.81;43560.63;5054235;28;20109;-79
2024/01/12 10:58:02;;;;;;;10.98;2.17;;;;;;;-146.27;82.81;43618.31;5088298;28;20040;-78
2024/01/12 11:00:33;;;;;;;7.13;1.90;;;;;;;-146.27;82.71;43598.44;5092748;28;20024;-78
2024/01/12 11:03:00;;;;;;;15.32;1.95;;;;;;;-146.27;82.56;43590.47;5097668;28;20015;-78
2024/01/12 11:05:28;;;;;;;16.55;2.40;;;;;;;-146.27;82.40;43602.41;5092504;28;20028;-79